Time;durP1;ratioP1;P1;durP2;ratioP2;P2;SDS_P1;SDS_P2;PMS_P1;PMS_P2;Temp;Humidity;BMP_temperature;BMP_pressure;BME280_temperature;BME280_humidity;BME280_pressure;Samples;Min_cycle;Max_cycle;Signal;HPM_P1;HPM_P2
2022/03/24 00:02:06;;;;;;;42.57;22.80;;;6.30;99.90;;;;;;5034572;28;20184;-62
2022/03/24 00:04:32;;;;;;;41.00;21.90;;;6.20;99.90;;;;;;5025650;28;20511;-65
2022/03/24 00:06:58;;;;;;;45.87;25.27;;;6.20;99.90;;;;;;5014967;28;20546;-63
2022/03/24 00:09:23;;;;;;;31.93;21.73;;;6.20;99.90;;;;;;5013898;28;20734;-62
2022/03/24 00:11:49;;;;;;;40.13;20.90;;;6.20;99.90;;;;;;5014446;28;20840;-65
2022/03/24 00:14:17;;;;;;;43.10;21.60;;;6.20;99.90;;;;;;5014594;28;20176;-66
2022/03/24 00:16:43;;;;;;;44.60;20.77;;;6.10;99.90;;;;;;5014680;28;20164;-66
2022/03/24 00:19:09;;;;;;;38.50;20.97;;;6.10;99.90;;;;;;5025750;28;20804;-62
2022/03/24 00:21:35;;;;;;;41.03;22.23;;;6.10;99.90;;;;;;5034238;28;20449;-62
2022/03/24 00:24:01;;;;;;;42.87;23.17;;;6.10;99.90;;;;;;5034332;28;20176;-65
2022/03/24 00:26:26;;;;;;;48.40;23.13;;;6.10;99.90;;;;;;5034264;28;20460;-63
2022/03/24 00:28:52;;;;;;;36.97;21.00;;;6.10;99.90;;;;;;5033508;28;20564;-66
2022/03/24 00:31:18;;;;;;;41.93;20.67;;;6.10;99.90;;;;;;5034124;28;20518;-65
2022/03/24 00:33:43;;;;;;;39.03;20.87;;;6.10;99.90;;;;;;5018672;28;20191;-62
2022/03/24 00:36:10;;;;;;;41.17;22.40;;;6.00;99.90;;;;;;5014265;28;20605;-66
2022/03/24 00:38:36;;;;;;;46.87;22.90;;;6.00;99.90;;;;;;5013587;28;20196;-63
2022/03/24 00:41:02;;;;;;;44.00;20.00;;;6.00;99.90;;;;;;5014174;28;20411;-63
2022/03/24 00:43:29;;;;;;;41.47;22.67;;;5.90;99.90;;;;;;5014087;28;20407;-63
2022/03/24 00:45:54;;;;;;;37.57;20.77;;;5.90;99.90;;;;;;5014101;28;20414;-64
2022/03/24 00:48:20;;;;;;;32.27;18.17;;;5.80;99.90;;;;;;5031312;28;20426;-67
2022/03/24 00:50:46;;;;;;;36.20;19.10;;;5.80;99.90;;;;;;5033093;28;20577;-62
2022/03/24 00:53:11;;;;;;;33.70;17.57;;;5.70;99.90;;;;;;5033668;28;20183;-63
2022/03/24 00:55:39;;;;;;;41.20;20.57;;;5.60;99.90;;;;;;5033554;28;20222;-66
2022/03/24 00:58:05;;;;;;;36.60;19.33;;;5.50;99.90;;;;;;5033546;28;20203;-65
2022/03/24 01:00:30;;;;;;;47.80;20.93;;;5.50;99.90;;;;;;5030612;28;21050;-62
2022/03/24 01:02:58;;;;;;;39.70;20.20;;;5.40;99.90;;;;;;5012542;28;20196;-63
2022/03/24 01:05:26;;;;;;;37.17;20.17;;;5.40;99.90;;;;;;5013944;28;20174;-62
2022/03/24 01:07:51;;;;;;;39.97;20.80;;;5.40;99.90;;;;;;5013685;28;20934;-65
2022/03/24 01:10:18;;;;;;;41.17;20.90;;;5.30;99.90;;;;;;5012747;28;20415;-62
2022/03/24 01:12:46;;;;;;;40.50;19.70;;;5.20;99.90;;;;;;5013860;28;20715;-65
2022/03/24 01:15:14;;;;;;;30.97;18.83;;;5.20;99.90;;;;;;5016728;28;20498;-66
2022/03/24 01:17:41;;;;;;;37.53;21.50;;;5.20;99.90;;;;;;5033560;28;20821;-62
2022/03/24 01:20:08;;;;;;;35.00;20.23;;;5.10;99.90;;;;;;5032492;28;20409;-63
2022/03/24 01:22:33;;;;;;;50.37;20.30;;;5.10;99.90;;;;;;5033356;28;20472;-66
2022/03/24 01:24:59;;;;;;;39.60;20.10;;;5.10;99.90;;;;;;5033314;28;20406;-65
2022/03/24 01:27:27;;;;;;;39.23;21.10;;;5.00;99.90;;;;;;5033559;28;20197;-65
2022/03/24 01:29:57;;;;;;;35.90;20.40;;;5.00;99.90;;;;;;5024868;28;20174;-66
2022/03/24 01:32:26;;;;;;;38.03;20.43;;;5.00;99.90;;;;;;5013212;28;20451;-64
2022/03/24 01:34:53;;;;;;;38.57;22.60;;;4.90;99.90;;;;;;5013558;28;20516;-63
2022/03/24 01:37:18;;;;;;;38.60;21.37;;;4.90;99.90;;;;;;5013511;28;20399;-66
2022/03/24 01:39:44;;;;;;;32.80;20.03;;;4.90;99.90;;;;;;5012469;28;20417;-63
2022/03/24 01:42:10;;;;;;;40.10;22.03;;;4.90;99.90;;;;;;5013410;28;20239;-65
2022/03/24 01:44:36;;;;;;;38.03;21.87;;;4.80;99.90;;;;;;5024719;28;20780;-66
2022/03/24 01:47:09;;;;;;;35.57;19.93;;;4.80;99.90;;;;;;5033311;28;20659;-66
2022/03/24 01:49:39;;;;;;;42.00;22.47;;;4.80;99.90;;;;;;5032338;28;20208;-62
2022/03/24 01:52:10;;;;;;;42.60;23.00;;;4.70;99.90;;;;;;5033104;28;20429;-63
2022/03/24 01:54:40;;;;;;;42.00;21.90;;;4.70;99.90;;;;;;5032888;28;20454;-63
2022/03/24 01:57:08;;;;;;;42.90;21.97;;;4.70;99.90;;;;;;5031842;28;20497;-65
2022/03/24 01:59:37;;;;;;;44.33;22.83;;;4.60;99.90;;;;;;5014940;28;20454;-65
2022/03/24 02:02:03;;;;;;;34.93;20.57;;;4.60;99.90;;;;;;5017137;28;20421;-62
2022/03/24 02:04:30;;;;;;;41.53;21.87;;;4.60;99.90;;;;;;5016995;28;20402;-63
2022/03/24 02:06:56;;;;;;;40.90;23.20;;;4.60;99.90;;;;;;5016937;28;20419;-65
2022/03/24 02:09:22;;;;;;;39.40;21.40;;;4.50;99.90;;;;;;5016304;28;20412;-62
2022/03/24 02:11:48;;;;;;;36.67;21.80;;;4.50;99.90;;;;;;5018655;28;20445;-65
2022/03/24 02:14:14;;;;;;;37.53;20.17;;;4.50;99.90;;;;;;5036674;28;20491;-62
2022/03/24 02:16:41;;;;;;;45.50;23.33;;;4.40;99.90;;;;;;5036659;28;20229;-62
2022/03/24 02:19:16;;;;;;;39.73;22.00;;;4.40;99.90;;;;;;5035800;28;20798;-62
2022/03/24 02:21:46;;;;;;;39.83;21.67;;;4.40;99.90;;;;;;5036616;28;20422;-66
2022/03/24 02:24:13;;;;;;;38.97;22.80;;;4.40;99.90;;;;;;5036448;28;20398;-62
2022/03/24 02:26:42;;;;;;;35.40;20.77;;;4.40;99.90;;;;;;5029604;28;20434;-67
2022/03/24 02:29:10;;;;;;;37.90;21.00;;;4.40;99.90;;;;;;5016703;28;20475;-65
2022/03/24 02:31:56;;;;;;;40.50;21.83;;;4.40;99.90;;;;;;5016613;28;20438;-62
2022/03/24 02:34:47;;;;;;;41.30;21.40;;;4.40;99.90;;;;;;5015042;28;20513;-62
2022/03/24 02:37:25;;;;;;;42.67;24.40;;;4.40;99.90;;;;;;5016544;28;20407;-63
2022/03/24 02:39:55;;;;;;;40.53;21.20;;;4.40;99.90;;;;;;5015594;28;20410;-66
2022/03/24 02:42:23;;;;;;;45.93;21.03;;;4.50;99.90;;;;;;5017375;28;20837;-62
2022/03/24 02:44:54;;;;;;;40.27;20.27;;;4.50;99.90;;;;;;5015169;28;20448;-66
2022/03/24 02:47:21;;;;;;;42.87;20.10;;;4.50;99.90;;;;;;5016371;28;20841;-62
2022/03/24 02:49:48;;;;;;;44.53;21.67;;;4.50;99.90;;;;;;5015453;28;20406;-64
2022/03/24 02:52:14;;;;;;;38.87;23.03;;;4.60;99.90;;;;;;5016024;28;20484;-62
2022/03/24 02:54:41;;;;;;;43.73;23.20;;;4.60;99.90;;;;;;5016044;28;20508;-64
2022/03/24 02:57:07;;;;;;;48.97;21.20;;;4.60;99.90;;;;;;5015885;28;20407;-63
2022/03/24 02:59:33;;;;;;;35.60;22.10;;;4.60;99.90;;;;;;5016421;28;20438;-65
2022/03/24 03:02:01;;;;;;;40.47;21.80;;;4.60;99.90;;;;;;5016031;28;20423;-66
2022/03/24 03:04:29;;;;;;;38.50;22.33;;;4.60;99.90;;;;;;5015984;28;20394;-63
2022/03/24 03:06:55;;;;;;;38.80;20.07;;;4.70;99.90;;;;;;5015755;28;20908;-64
2022/03/24 03:09:22;;;;;;;39.90;22.87;;;4.60;99.90;;;;;;5014962;28;20478;-66
2022/03/24 03:11:48;;;;;;;40.47;21.47;;;4.70;99.90;;;;;;5014792;28;20423;-62
2022/03/24 03:14:17;;;;;;;40.23;20.90;;;4.70;99.90;;;;;;5015921;28;20412;-66
2022/03/24 03:16:44;;;;;;;40.57;23.23;;;4.70;99.90;;;;;;5024085;28;20464;-63
2022/03/24 03:19:11;;;;;;;41.93;22.30;;;4.70;99.90;;;;;;5034571;28;20435;-66
2022/03/24 03:21:40;;;;;;;51.70;24.97;;;4.70;99.90;;;;;;5035530;28;20935;-66
2022/03/24 03:24:08;;;;;;;47.83;21.77;;;4.70;99.90;;;;;;5035555;28;20502;-62
2022/03/24 03:26:34;;;;;;;42.30;23.60;;;4.70;99.90;;;;;;5035543;28;20760;-62
2022/03/24 03:29:00;;;;;;;37.00;21.57;;;4.70;99.90;;;;;;5034438;28;20413;-64
2022/03/24 03:31:26;;;;;;;40.87;22.57;;;4.70;99.90;;;;;;5035197;28;20417;-62
2022/03/24 03:33:52;;;;;;;39.27;20.90;;;4.70;99.90;;;;;;5021826;28;20242;-67
2022/03/24 03:36:22;;;;;;;33.43;20.73;;;4.70;99.90;;;;;;5015322;28;20438;-63
2022/03/24 03:38:48;;;;;;;46.07;22.70;;;4.70;99.90;;;;;;5014499;28;20905;-65
2022/03/24 03:41:15;;;;;;;40.47;21.60;;;4.70;99.90;;;;;;5015077;28;20507;-66
2022/03/24 03:43:41;;;;;;;46.23;22.17;;;4.80;99.90;;;;;;5015270;28;20395;-65
2022/03/24 03:46:08;;;;;;;49.07;22.57;;;4.80;99.90;;;;;;5015374;28;20407;-64
2022/03/24 03:48:37;;;;;;;49.20;23.17;;;4.70;99.90;;;;;;5014163;28;20758;-62
2022/03/24 03:51:08;;;;;;;43.83;21.70;;;4.70;99.90;;;;;;5015013;28;20414;-67
2022/03/24 03:53:37;;;;;;;44.93;23.13;;;4.70;99.90;;;;;;5014968;28;20409;-62
2022/03/24 03:56:04;;;;;;;40.70;21.93;;;4.70;99.90;;;;;;5015034;28;20477;-64
2022/03/24 03:58:30;;;;;;;37.33;21.17;;;4.80;99.90;;;;;;5014266;28;20972;-70
2022/03/24 04:00:56;;;;;;;39.80;22.43;;;4.80;99.90;;;;;;5014845;28;20412;-64
2022/03/24 04:03:27;;;;;;;38.03;23.47;;;4.70;99.90;;;;;;5014829;28;20403;-63
2022/03/24 04:05:55;;;;;;;53.40;25.70;;;4.70;99.90;;;;;;5014309;28;20187;-64
2022/03/24 04:08:21;;;;;;;49.30;23.07;;;4.70;99.90;;;;;;5014688;28;20461;-69
2022/03/24 04:10:48;;;;;;;40.03;23.30;;;4.70;99.90;;;;;;5014090;28;20441;-66
2022/03/24 04:13:15;;;;;;;42.93;22.97;;;4.70;99.90;;;;;;5014653;28;20443;-63
2022/03/24 04:15:40;;;;;;;47.17;24.23;;;4.70;99.90;;;;;;5014446;28;20541;-64
2022/03/24 04:18:06;;;;;;;47.20;23.50;;;4.70;99.90;;;;;;5014799;28;20496;-66
2022/03/24 04:20:32;;;;;;;37.43;20.77;;;4.60;99.90;;;;;;5013696;28;20165;-65
2022/03/24 04:23:02;;;;;;;43.73;22.20;;;4.60;99.90;;;;;;5021701;28;20701;-62
2022/03/24 04:25:29;;;;;;;43.90;23.70;;;4.60;99.90;;;;;;5034343;28;20394;-62
2022/03/24 04:27:55;;;;;;;48.77;23.90;;;4.70;99.90;;;;;;5034217;28;20400;-66
2022/03/24 04:30:21;;;;;;;51.67;23.57;;;4.60;99.90;;;;;;5033191;28;20897;-62
2022/03/24 04:32:48;;;;;;;46.43;25.40;;;4.70;99.90;;;;;;5034005;28;20444;-63
2022/03/24 04:35:14;;;;;;;46.97;25.33;;;4.60;99.90;;;;;;5034096;28;20441;-62
2022/03/24 04:37:41;;;;;;;38.73;20.70;;;4.60;99.90;;;;;;5034032;28;20485;-62
2022/03/24 04:40:07;;;;;;;51.33;26.97;;;4.60;99.90;;;;;;5028037;28;20421;-66
2022/03/24 04:42:34;;;;;;;47.93;23.07;;;4.60;99.90;;;;;;5014123;28;20815;-68
2022/03/24 04:45:00;;;;;;;44.83;21.70;;;4.60;99.90;;;;;;5013230;28;20468;-63
2022/03/24 04:47:26;;;;;;;36.13;20.97;;;4.60;99.90;;;;;;5014209;28;20407;-62
2022/03/24 04:49:52;;;;;;;48.97;23.33;;;4.60;99.90;;;;;;5013137;28;20956;-62
2022/03/24 04:52:19;;;;;;;44.87;23.97;;;4.60;99.90;;;;;;5012754;28;20438;-66
2022/03/24 04:54:45;;;;;;;48.47;24.60;;;4.60;99.90;;;;;;5014046;28;20654;-64
2022/03/24 04:57:10;;;;;;;59.43;23.87;;;4.50;99.90;;;;;;5031738;28;20424;-66
2022/03/24 04:59:36;;;;;;;50.47;22.63;;;4.50;99.90;;;;;;5032847;28;20910;-62
2022/03/24 05:02:01;;;;;;;45.13;25.40;;;4.50;99.90;;;;;;5033305;28;20245;-66
2022/03/24 05:04:27;;;;;;;42.73;22.87;;;4.50;99.90;;;;;;5033587;28;20252;-62
2022/03/24 05:06:53;;;;;;;44.47;24.00;;;4.50;99.90;;;;;;5033705;28;20227;-64
2022/03/24 05:09:19;;;;;;;40.93;21.93;;;4.50;99.90;;;;;;5032706;28;20522;-62
2022/03/24 05:11:44;;;;;;;49.93;23.90;;;4.40;99.90;;;;;;5032271;28;20427;-63
2022/03/24 05:14:11;;;;;;;44.23;23.90;;;4.40;99.90;;;;;;5031509;28;20227;-63
2022/03/24 05:16:37;;;;;;;36.57;22.40;;;4.40;99.90;;;;;;5033617;28;20270;-66
2022/03/24 05:19:03;;;;;;;47.13;23.57;;;4.40;99.90;;;;;;5032788;28;20404;-66
2022/03/24 05:21:31;;;;;;;46.57;25.10;;;4.40;99.90;;;;;;5033297;28;20200;-64
2022/03/24 05:23:57;;;;;;;41.70;22.10;;;4.40;99.90;;;;;;5033518;28;20386;-62
2022/03/24 05:26:24;;;;;;;55.60;27.90;;;4.40;99.90;;;;;;5033369;28;20878;-66
2022/03/24 05:28:51;;;;;;;53.47;26.03;;;4.40;99.90;;;;;;5031396;28;20516;-65
2022/03/24 05:31:18;;;;;;;53.37;26.47;;;4.40;99.90;;;;;;5033064;28;20434;-62
2022/03/24 05:33:44;;;;;;;49.27;25.97;;;4.40;99.90;;;;;;5033405;28;20407;-65
2022/03/24 05:36:10;;;;;;;48.00;23.97;;;4.40;99.90;;;;;;5036927;28;20537;-63
2022/03/24 05:38:36;;;;;;;46.40;23.07;;;4.40;99.90;;;;;;5036598;28;20397;-64
2022/03/24 05:41:03;;;;;;;44.90;24.77;;;4.40;99.90;;;;;;5037168;28;20987;-64
2022/03/24 05:43:29;;;;;;;51.87;25.20;;;4.40;99.90;;;;;;5037343;28;20400;-62
2022/03/24 05:45:55;;;;;;;38.47;24.20;;;4.40;99.90;;;;;;5035536;28;20419;-62
2022/03/24 05:48:21;;;;;;;56.17;26.90;;;4.50;99.90;;;;;;5037011;28;20710;-70
2022/03/24 05:50:46;;;;;;;50.13;25.90;;;4.60;99.90;;;;;;5036381;28;20166;-63
2022/03/24 05:53:12;;;;;;;50.63;25.27;;;4.60;99.90;;;;;;5037113;28;20194;-63
2022/03/24 05:55:40;;;;;;;46.20;24.00;;;4.70;99.90;;;;;;5037001;28;20194;-66
2022/03/24 05:58:06;;;;;;;51.73;29.37;;;4.80;99.90;;;;;;5037045;28;20183;-62
2022/03/24 06:00:34;;;;;;;68.60;30.00;;;4.80;99.90;;;;;;5035945;28;20882;-62
2022/03/24 06:03:01;;;;;;;58.53;30.30;;;4.90;99.90;;;;;;5035185;28;20432;-62
2022/03/24 06:05:27;;;;;;;52.97;27.97;;;5.00;99.90;;;;;;5036884;28;20809;-63
2022/03/24 06:07:53;;;;;;;51.07;30.60;;;5.10;99.90;;;;;;5036743;28;20413;-63
2022/03/24 06:10:19;;;;;;;46.23;25.23;;;5.20;99.90;;;;;;5035788;28;20197;-64
2022/03/24 06:12:47;;;;;;;46.47;27.27;;;5.40;99.90;;;;;;5036596;28;20873;-66
2022/03/24 06:15:13;;;;;;;43.17;23.83;;;5.50;99.90;;;;;;5035239;28;20515;-66
2022/03/24 06:17:39;;;;;;;60.03;29.77;;;5.70;99.90;;;;;;5036815;28;20422;-63
2022/03/24 06:20:08;;;;;;;58.47;29.33;;;5.80;99.90;;;;;;5033917;28;20429;-62
2022/03/24 06:22:42;;;;;;;66.00;30.73;;;5.90;99.90;;;;;;5035188;28;20458;-66
2022/03/24 06:25:08;;;;;;;49.37;28.10;;;6.10;99.90;;;;;;5036511;28;20413;-63
2022/03/24 06:27:34;;;;;;;56.30;29.97;;;6.20;99.90;;;;;;5035208;28;20406;-62
2022/03/24 06:30:00;;;;;;;52.33;27.47;;;6.30;99.90;;;;;;5035844;28;20736;-65
2022/03/24 06:32:27;;;;;;;51.23;26.63;;;6.40;99.90;;;;;;5036409;28;20203;-65
2022/03/24 06:34:53;;;;;;;55.83;28.63;;;6.50;99.90;;;;;;5036305;28;20278;-62
2022/03/24 06:37:19;;;;;;;52.00;26.97;;;6.70;99.90;;;;;;5034539;28;20453;-64
2022/03/24 06:39:45;;;;;;;45.83;24.80;;;6.80;99.90;;;;;;5035559;28;20218;-71
2022/03/24 06:42:11;;;;;;;45.10;25.53;;;6.90;99.90;;;;;;5036672;28;20422;-72
2022/03/24 06:44:36;;;;;;;50.30;25.50;;;7.00;99.90;;;;;;5035045;28;20172;-66
2022/03/24 06:47:02;;;;;;;51.27;26.23;;;7.20;99.90;;;;;;5036070;28;20176;-70
2022/03/24 06:49:27;;;;;;;52.28;28.15;;;7.20;99.90;;;;;;5020565;28;20488;-68
2022/03/24 06:51:53;;;;;;;54.93;26.97;;;7.40;99.90;;;;;;5032279;28;20251;-65
2022/03/24 06:54:19;;;;;;;49.07;25.47;;;7.50;99.90;;;;;;5016298;28;20182;-69
2022/03/24 06:56:45;;;;;;;46.80;24.90;;;7.60;99.90;;;;;;5016060;28;20450;-65
2022/03/24 06:59:10;;;;;;;45.77;24.80;;;7.70;99.90;;;;;;5015099;28;20175;-69
2022/03/24 07:01:36;;;;;;;45.00;24.17;;;7.80;99.90;;;;;;5015953;28;20188;-67
2022/03/24 07:04:02;;;;;;;38.60;23.73;;;7.90;99.90;;;;;;5035552;28;20418;-70
2022/03/24 07:06:28;;;;;;;44.07;21.60;;;8.00;99.90;;;;;;5035679;28;20266;-69
2022/03/24 07:08:53;;;;;;;43.93;24.17;;;8.10;99.90;;;;;;5034663;28;20410;-65
2022/03/24 07:11:19;;;;;;;50.23;24.77;;;8.20;99.90;;;;;;5035577;28;20195;-69
2022/03/24 07:13:45;;;;;;;45.27;25.77;;;8.30;99.90;;;;;;5035645;28;20676;-68
2022/03/24 07:16:10;;;;;;;49.00;26.30;;;8.40;99.90;;;;;;5032480;28;20205;-64
2022/03/24 07:18:36;;;;;;;49.87;26.90;;;8.60;99.90;;;;;;5014980;28;20227;-64
2022/03/24 07:21:02;;;;;;;46.10;27.87;;;8.60;99.90;;;;;;5015466;28;20196;-64
2022/03/24 07:23:28;;;;;;;43.30;25.27;;;8.70;99.90;;;;;;5015781;28;20168;-69
2022/03/24 07:25:53;;;;;;;57.20;24.37;;;8.80;99.90;;;;;;5015671;28;20212;-68
2022/03/24 07:28:19;;;;;;;48.70;26.07;;;8.80;99.90;;;;;;5015933;28;20221;-65
2022/03/24 07:30:50;;;;;;;43.53;24.37;;;8.90;99.90;;;;;;5013791;28;20262;-69
2022/03/24 07:33:20;;;;;;;56.57;27.23;;;9.00;99.90;;;;;;5016444;28;20290;-68
2022/03/24 07:35:46;;;;;;;46.20;26.47;;;9.10;99.90;;;;;;5015500;28;20992;-64
2022/03/24 07:38:12;;;;;;;46.40;26.50;;;9.20;99.90;;;;;;5014448;28;20905;-65
2022/03/24 07:40:37;;;;;;;52.43;27.77;;;9.30;99.90;;;;;;5014556;28;20423;-67
2022/03/24 07:43:05;;;;;;;43.20;25.20;;;9.40;99.90;;;;;;5015267;28;20423;-67
2022/03/24 07:45:37;;;;;;;41.60;24.30;;;9.40;99.90;;;;;;5015282;28;20167;-65
2022/03/24 07:48:32;;;;;;;46.83;26.10;;;9.50;99.90;;;;;;5015234;28;20410;-69
2022/03/24 07:51:00;;;;;;;39.73;22.80;;;9.50;99.90;;;;;;5018917;28;20914;-70
2022/03/24 07:53:28;;;;;;;48.03;24.90;;;9.60;99.90;;;;;;5014887;28;20508;-68
2022/03/24 07:55:57;;;;;;;44.30;25.37;;;9.70;99.90;;;;;;5015130;28;20468;-65
2022/03/24 07:58:23;;;;;;;49.40;25.03;;;9.80;99.90;;;;;;5014370;28;20383;-69
2022/03/24 08:00:49;;;;;;;49.23;25.70;;;9.90;99.90;;;;;;5014314;28;20377;-66
2022/03/24 08:03:18;;;;;;;43.37;23.00;;;10.00;99.90;;;;;;5014871;28;20403;-68
2022/03/24 08:05:45;;;;;;;43.60;24.43;;;10.10;99.90;;;;;;5015889;28;20429;-65
2022/03/24 08:08:11;;;;;;;44.27;24.30;;;10.20;99.90;;;;;;5033324;28;20469;-68
2022/03/24 08:10:41;;;;;;;42.27;26.77;;;10.30;99.90;;;;;;5033606;28;20377;-65
2022/03/24 08:13:07;;;;;;;41.20;25.27;;;10.40;99.90;;;;;;5034385;28;20492;-64
2022/03/24 08:15:36;;;;;;;46.17;26.67;;;10.60;99.90;;;;;;5034335;28;20777;-65
2022/03/24 08:18:02;;;;;;;44.77;25.60;;;10.60;99.90;;;;;;5034586;28;20397;-64
2022/03/24 08:20:27;;;;;;;50.70;26.60;;;10.80;99.90;;;;;;5033469;28;20399;-65
2022/03/24 08:22:53;;;;;;;42.97;25.23;;;10.90;99.90;;;;;;5027495;28;20412;-64
2022/03/24 08:25:20;;;;;;;44.30;26.63;;;11.00;99.90;;;;;;5014613;28;20598;-67
2022/03/24 08:27:46;;;;;;;44.83;26.50;;;11.10;99.90;;;;;;5014438;28;20172;-69
2022/03/24 08:30:12;;;;;;;47.47;25.87;;;11.10;99.90;;;;;;5023959;28;20407;-69
2022/03/24 08:32:39;;;;;;;43.37;23.67;;;11.30;99.90;;;;;;5014649;28;20405;-66
2022/03/24 08:35:05;;;;;;;42.73;24.47;;;11.40;99.90;;;;;;5014389;28;20446;-69
2022/03/24 08:37:31;;;;;;;46.03;23.63;;;11.50;99.90;;;;;;5014467;28;20798;-68
2022/03/24 08:39:57;;;;;;;44.20;26.20;;;11.60;99.90;;;;;;5013397;28;20490;-64
2022/03/24 08:42:23;;;;;;;49.77;26.30;;;11.60;99.90;;;;;;5014225;28;20230;-65
2022/03/24 08:44:49;;;;;;;42.53;23.90;;;11.60;99.90;;;;;;5021443;28;20246;-69
2022/03/24 08:47:15;;;;;;;41.60;24.27;;;11.50;99.90;;;;;;5033576;28;20464;-65
2022/03/24 08:49:41;;;;;;;44.53;25.00;;;11.40;99.90;;;;;;5031641;28;20849;-66
2022/03/24 08:52:07;;;;;;;44.63;25.60;;;11.40;99.90;;;;;;5031923;28;20488;-67
2022/03/24 08:54:32;;;;;;;41.00;25.10;;;11.50;99.90;;;;;;5031721;28;20172;-65
2022/03/24 08:56:58;;;;;;;46.73;24.90;;;11.50;99.90;;;;;;5033747;28;20389;-68
2022/03/24 08:59:24;;;;;;;41.20;23.60;;;11.60;99.90;;;;;;5032962;28;20186;-68
2022/03/24 09:01:50;;;;;;;44.17;24.47;;;11.80;99.90;;;;;;5032273;28;20203;-65
2022/03/24 09:04:16;;;;;;;41.03;23.20;;;12.10;99.90;;;;;;5033682;28;20179;-65
2022/03/24 09:06:42;;;;;;;49.40;24.53;;;12.30;99.90;;;;;;5029580;28;20208;-64
2022/03/24 09:09:08;;;;;;;42.27;24.27;;;12.60;99.90;;;;;;5012195;28;20974;-65
2022/03/24 09:11:33;;;;;;;37.63;23.33;;;12.80;99.90;;;;;;5013720;28;20215;-65
2022/03/24 09:13:59;;;;;;;41.50;25.53;;;13.00;99.90;;;;;;5013615;28;20225;-65
2022/03/24 09:16:25;;;;;;;42.77;23.97;;;13.30;99.90;;;;;;5013694;28;20249;-68
2022/03/24 09:18:50;;;;;;;38.93;23.83;;;13.50;99.90;;;;;;5012989;28;20172;-69
2022/03/24 09:21:19;;;;;;;41.20;24.70;;;13.60;99.90;;;;;;5012407;28;20196;-68
2022/03/24 09:23:46;;;;;;;37.23;23.50;;;13.70;99.90;;;;;;5014587;28;20688;-69
2022/03/24 09:26:12;;;;;;;39.67;24.17;;;13.90;99.90;;;;;;5013501;28;20432;-65
2022/03/24 09:28:38;;;;;;;35.90;22.13;;;14.20;99.90;;;;;;5012906;28;20407;-65
2022/03/24 09:31:03;;;;;;;40.20;22.87;;;14.30;99.90;;;;;;5014706;28;20191;-69
2022/03/24 09:33:29;;;;;;;42.63;23.60;;;14.30;99.90;;;;;;5027386;28;20215;-69
2022/03/24 09:35:55;;;;;;;36.87;23.00;;;14.60;97.40;;;;;;5026432;28;20222;-70
2022/03/24 09:38:21;;;;;;;35.80;22.80;;;14.70;96.80;;;;;;5013517;28;20251;-72
2022/03/24 09:40:47;;;;;;;37.43;22.13;;;15.00;93.90;;;;;;5012770;28;20596;-68
2022/03/24 09:43:15;;;;;;;35.67;21.20;;;15.20;93.90;;;;;;5013612;28;20199;-69
2022/03/24 09:45:42;;;;;;;36.53;22.57;;;15.30;95.10;;;;;;5013552;28;20176;-69
2022/03/24 09:48:10;;;;;;;40.67;23.93;;;15.70;94.10;;;;;;5013415;28;20876;-70
2022/03/24 09:50:37;;;;;;;40.40;23.83;;;15.90;94.20;;;;;;5021912;28;20426;-65
2022/03/24 09:53:03;;;;;;;39.00;22.90;;;16.00;94.30;;;;;;5032667;28;20442;-69
2022/03/24 09:55:32;;;;;;;36.83;21.97;;;16.20;94.30;;;;;;5033214;28;20450;-66
2022/03/24 09:57:59;;;;;;;40.30;25.60;;;16.40;94.40;;;;;;5033213;28;20399;-65
2022/03/24 10:00:26;;;;;;;39.20;23.43;;;16.50;94.40;;;;;;5030110;28;20414;-68
2022/03/24 10:03:15;;;;;;;44.33;24.70;;;16.50;94.50;;;;;;5013287;28;20495;-69
2022/03/24 10:06:06;;;;;;;35.87;21.50;;;16.50;94.40;;;;;;5012000;28;20411;-69
2022/03/24 10:08:33;;;;;;;41.10;24.57;;;16.70;91.00;;;;;;5012264;28;20926;-66
2022/03/24 10:11:02;;;;;;;43.90;23.93;;;16.70;90.30;;;;;;5013292;28;20426;-69
2022/03/24 10:13:44;;;;;;;39.20;22.40;;;16.80;89.00;;;;;;5013226;28;20407;-66
2022/03/24 10:16:31;;;;;;;40.10;24.13;;;17.10;86.90;;;;;;5026085;28;20473;-69
2022/03/24 10:19:00;;;;;;;41.30;23.17;;;17.10;83.60;;;;;;5032013;28;20517;-65
2022/03/24 10:21:29;;;;;;;32.50;22.97;;;17.20;82.20;;;;;;5035232;28;20426;-67
2022/03/24 10:24:00;;;;;;;37.00;21.83;;;17.40;81.10;;;;;;5036587;28;20402;-70
2022/03/24 10:26:59;;;;;;;36.57;21.63;;;17.80;78.90;;;;;;5036457;28;20770;-67
2022/03/24 10:29:25;;;;;;;33.93;23.00;;;18.20;76.60;;;;;;5029968;28;20447;-69
2022/03/24 10:31:53;;;;;;;42.07;23.90;;;18.50;74.00;;;;;;5016533;28;20436;-69
2022/03/24 10:34:30;;;;;;;37.30;23.23;;;18.60;71.80;;;;;;5016607;28;20402;-65
2022/03/24 10:36:56;;;;;;;44.13;24.37;;;18.80;70.00;;;;;;5016542;28;20461;-66
2022/03/24 10:39:26;;;;;;;46.70;23.37;;;19.10;68.30;;;;;;5015569;28;20411;-69
2022/03/24 10:41:52;;;;;;;35.80;23.03;;;19.30;64.70;;;;;;5015820;28;20537;-65
2022/03/24 10:44:18;;;;;;;41.17;22.97;;;19.30;60.40;;;;;;5029381;28;20453;-70
2022/03/24 10:46:45;;;;;;;37.43;22.50;;;19.40;59.00;;;;;;5016361;28;20439;-67
2022/03/24 10:49:26;;;;;;;40.03;23.13;;;19.70;57.40;;;;;;5015636;28;20411;-75
2022/03/24 10:51:53;;;;;;;40.60;23.93;;;19.50;52.30;;;;;;5016460;28;20481;-66
2022/03/24 10:54:37;;;;;;;37.10;22.50;;;19.60;51.60;;;;;;5016204;28;20399;-69
2022/03/24 10:57:14;;;;;;;36.50;21.63;;;19.70;47.60;;;;;;5016186;28;20415;-65
2022/03/24 10:59:54;;;;;;;36.10;24.70;;;19.60;49.50;;;;;;5030593;28;20914;-65
2022/03/24 11:02:21;;;;;;;43.00;24.73;;;19.60;41.70;;;;;;5035781;28;20447;-69
2022/03/24 11:04:47;;;;;;;37.63;23.00;;;19.20;39.60;;;;;;5035803;28;20395;-70
2022/03/24 11:07:24;;;;;;;37.97;22.80;;;18.90;40.80;;;;;;5035703;28;20795;-65
2022/03/24 11:09:51;;;;;;;31.53;20.63;;;18.90;38.60;;;;;;5034950;28;20489;-66
2022/03/24 11:12:27;;;;;;;40.87;21.57;;;19.00;39.50;;;;;;5033107;28;20551;-70
2022/03/24 11:14:57;;;;;;;44.93;23.30;;;18.70;36.50;;;;;;5015660;28;20414;-70
2022/03/24 11:17:25;;;;;;;37.03;22.97;;;18.70;37.00;;;;;;5015808;28;20403;-69
2022/03/24 11:20:05;;;;;;;43.00;24.97;;;19.00;37.20;;;;;;5013645;28;20497;-65
2022/03/24 11:22:47;;;;;;;35.77;20.73;;;19.30;38.50;;;;;;5015703;28;20895;-66
2022/03/24 11:25:13;;;;;;;42.17;23.03;;;19.50;36.90;;;;;;5015606;28;20420;-65
2022/03/24 11:27:39;;;;;;;44.63;24.23;;;19.40;33.10;;;;;;5025583;28;20893;-66
2022/03/24 11:30:08;;;;;;;34.83;21.20;;;19.60;34.90;;;;;;5034538;28;20492;-70
2022/03/24 11:32:40;;;;;;;39.03;23.93;;;19.80;36.20;;;;;;5034278;28;20465;-70
2022/03/24 11:35:07;;;;;;;38.33;22.17;;;20.00;34.00;;;;;;5035072;28;20464;-65
2022/03/24 11:37:34;;;;;;;43.67;22.30;;;20.00;32.30;;;;;;5035592;28;20405;-66
2022/03/24 11:40:15;;;;;;;39.47;23.40;;;19.80;30.30;;;;;;5034377;28;20414;-69
2022/03/24 11:43:02;;;;;;;35.87;22.17;;;19.70;29.70;;;;;;5016566;28;20947;-70
2022/03/24 11:45:37;;;;;;;39.83;23.50;;;19.60;31.30;;;;;;5015446;28;20482;-69
2022/03/24 11:48:14;;;;;;;35.80;21.77;;;19.50;28.60;;;;;;5015403;28;20411;-69
2022/03/24 11:50:49;;;;;;;32.37;20.63;;;19.40;29.60;;;;;;5014443;28;20437;-70
2022/03/24 11:53:20;;;;;;;36.00;22.37;;;19.40;29.40;;;;;;5015123;28;20463;-70
2022/03/24 11:56:01;;;;;;;45.80;22.33;;;19.50;29.10;;;;;;5015013;28;20467;-65
2022/03/24 11:59:06;;;;;;;43.90;22.17;;;19.60;27.20;;;;;;5015002;28;20935;-65
2022/03/24 12:01:35;;;;;;;43.33;23.63;;;19.50;27.10;;;;;;5014800;28;20422;-70
2022/03/24 12:04:03;;;;;;;33.37;22.80;;;19.60;28.60;;;;;;5015053;28;20493;-69
2022/03/24 12:06:45;;;;;;;34.30;22.87;;;20.00;28.50;;;;;;5014855;28;20506;-66
2022/03/24 12:09:13;;;;;;;36.70;21.47;;;20.70;30.00;;;;;;5016163;28;20423;-70
2022/03/24 12:12:06;;;;;;;41.30;22.27;;;21.30;30.30;;;;;;5034502;28;20430;-69
2022/03/24 12:14:36;;;;;;;37.70;22.70;;;21.90;32.70;;;;;;5034498;28;20420;-66
2022/03/24 12:17:19;;;;;;;35.50;21.90;;;22.40;28.80;;;;;;5033159;28;20465;-66
2022/03/24 12:19:47;;;;;;;41.83;22.90;;;22.60;29.70;;;;;;5033508;28;20402;-69
2022/03/24 12:22:32;;;;;;;39.77;23.87;;;23.00;29.00;;;;;;5034409;28;20422;-65
2022/03/24 12:25:01;;;;;;;43.23;23.87;;;23.40;25.40;;;;;;5018735;28;20423;-70
2022/03/24 12:27:33;;;;;;;37.47;24.90;;;22.60;21.10;;;;;;5014350;28;20419;-66
2022/03/24 12:30:18;;;;;;;33.73;22.07;;;22.50;20.20;;;;;;5013583;28;20407;-69
2022/03/24 12:33:01;;;;;;;36.10;21.80;;;22.70;21.30;;;;;;5014361;28;20431;-70
2022/03/24 12:35:41;;;;;;;50.80;23.80;;;23.40;24.30;;;;;;5014414;28;20447;-67
2022/03/24 12:38:35;;;;;;;36.70;20.83;;;24.10;22.30;;;;;;5021093;28;20536;-71
2022/03/24 12:41:06;;;;;;;34.87;21.27;;;24.60;18.60;;;;;;5034076;28;20489;-66